createdAt,value
2023-05-04T00:01:40.541Z,13.11
2023-05-04T00:04:10.337Z,13.14
2023-05-04T00:06:39.838Z,13.07
2023-05-04T00:09:09.460Z,12.99
2023-05-04T00:11:39.895Z,12.91
2023-05-04T00:14:11.869Z,12.98
2023-05-04T00:16:41.451Z,13.03
2023-05-04T00:19:11.131Z,12.84
2023-05-04T00:21:40.969Z,12.96
2023-05-04T00:24:10.560Z,12.82
2023-05-04T00:26:40.072Z,13.01
2023-05-04T00:29:12.044Z,12.77
2023-05-04T00:31:41.496Z,12.85
2023-05-04T00:34:10.911Z,12.57
2023-05-04T00:36:40.467Z,12.61
2023-05-04T00:39:10.136Z,12.78
2023-05-04T00:41:39.873Z,12.77
2023-05-04T00:44:11.828Z,12.79
2023-05-04T00:46:41.635Z,12.45
2023-05-04T00:49:11.322Z,12.78
2023-05-04T00:51:41.028Z,12.85
2023-05-04T00:54:10.427Z,12.80
2023-05-04T00:56:43.355Z,12.65
2023-05-04T00:59:15.346Z,12.59
2023-05-04T01:01:45.107Z,12.57
2023-05-04T01:04:15.023Z,12.54
2023-05-04T01:06:50.527Z,12.60
2023-05-04T01:09:26.338Z,12.70
2023-05-04T01:12:03.339Z,12.77
2023-05-04T01:14:36.704Z,12.81
2023-05-04T01:17:07.832Z,12.85
2023-05-04T01:19:38.038Z,12.85
2023-05-04T01:22:09.933Z,12.88
2023-05-04T01:24:39.509Z,12.81
2023-05-04T01:27:13.961Z,12.86
2023-05-04T01:29:48.077Z,12.85
2023-05-04T01:32:18.334Z,12.82
2023-05-04T01:34:47.914Z,12.75
2023-05-04T01:37:19.844Z,12.76
2023-05-04T01:39:49.189Z,12.78
2023-05-04T01:42:18.530Z,12.75
2023-05-04T01:44:47.972Z,12.61
2023-05-04T01:47:17.338Z,12.48
2023-05-04T01:49:46.697Z,12.46
2023-05-04T01:52:16.109Z,12.29
2023-05-04T01:54:48.065Z,12.14
2023-05-04T01:57:17.552Z,12.21
2023-05-04T01:59:46.949Z,12.19
2023-05-04T02:02:16.379Z,12.14
2023-05-04T02:04:46.265Z,12.17
2023-05-04T02:07:15.645Z,12.07
2023-05-04T02:09:44.995Z,12.01
2023-05-04T02:12:16.901Z,11.91
2023-05-04T02:14:46.312Z,12.01
2023-05-04T02:17:15.640Z,11.91
2023-05-04T02:19:45.004Z,11.90
2023-05-04T02:22:14.410Z,11.96
2023-05-04T02:24:44.525Z,11.70
2023-05-04T02:27:13.969Z,11.69
2023-05-04T02:29:46.021Z,11.70
2023-05-04T02:32:15.399Z,11.59
2023-05-04T02:34:44.703Z,11.62
2023-05-04T02:37:14.050Z,11.74
2023-05-04T02:39:43.359Z,11.50
2023-05-04T02:42:12.685Z,11.51
2023-05-04T02:44:42.034Z,11.58
2023-05-04T02:47:13.966Z,11.74
2023-05-04T02:49:43.543Z,11.82
2023-05-04T02:52:13.374Z,11.84
2023-05-04T02:54:42.690Z,11.67
2023-05-04T02:57:11.985Z,11.58
2023-05-04T02:59:41.399Z,11.56
2023-05-04T03:02:11.545Z,11.56
2023-05-04T03:04:43.536Z,11.41
2023-05-04T03:07:13.104Z,11.38
2023-05-04T03:09:42.409Z,11.35
2023-05-04T03:12:11.709Z,11.31
2023-05-04T03:14:41.023Z,11.35
2023-05-04T03:17:10.656Z,11.36
2023-05-04T03:19:39.979Z,11.26
2023-05-04T03:22:12.003Z,11.27
2023-05-04T03:24:41.418Z,11.24
2023-05-04T03:27:10.751Z,11.19
2023-05-04T03:29:40.097Z,11.19
2023-05-04T03:32:09.634Z,11.16
2023-05-04T03:34:39.086Z,11.16
2023-05-04T03:37:08.489Z,11.22
2023-05-04T03:39:40.645Z,11.18
2023-05-04T03:42:09.998Z,10.88
2023-05-04T03:44:39.299Z,10.91
2023-05-04T03:47:08.921Z,10.94
2023-05-04T03:49:38.463Z,10.84
2023-05-04T03:52:07.975Z,10.89
2023-05-04T03:54:39.885Z,10.82
2023-05-04T03:57:09.201Z,10.80
2023-05-04T03:59:38.556Z,10.82
2023-05-04T04:02:08.038Z,10.76
2023-05-04T04:04:37.648Z,10.62
2023-05-04T04:07:07.239Z,10.56
2023-05-04T04:09:36.813Z,10.86
2023-05-04T04:12:09.030Z,10.68
2023-05-04T04:14:38.559Z,10.69
2023-05-04T04:17:08.085Z,10.75
2023-05-04T04:19:37.476Z,10.92
2023-05-04T04:22:06.801Z,10.96
2023-05-04T04:24:36.108Z,11.02
2023-05-04T04:27:08.125Z,10.98
2023-05-04T04:29:37.750Z,11.08
2023-05-04T04:32:07.616Z,11.07
2023-05-04T04:34:37.376Z,11.06
2023-05-04T04:37:06.800Z,11.11
2023-05-04T04:39:36.173Z,11.21
2023-05-04T04:42:08.794Z,11.08
2023-05-04T04:44:39.345Z,10.98
2023-05-04T04:47:09.455Z,11.20
2023-05-04T04:49:38.847Z,11.19
2023-05-04T04:52:08.417Z,11.26
2023-05-04T04:54:37.761Z,11.23
2023-05-04T04:57:09.994Z,11.27
2023-05-04T04:59:39.549Z,11.29
2023-05-04T05:02:09.694Z,11.32
2023-05-04T05:04:42.070Z,11.29
2023-05-04T05:07:11.647Z,11.23
2023-05-04T05:09:41.070Z,11.24
2023-05-04T05:12:13.023Z,11.17
2023-05-04T05:14:42.355Z,11.20
2023-05-04T05:17:11.864Z,11.22
2023-05-04T05:19:42.333Z,11.21
2023-05-04T05:22:11.746Z,11.22
2023-05-04T05:24:41.253Z,11.27
2023-05-04T05:27:13.153Z,11.25
2023-05-04T05:29:42.824Z,11.36
2023-05-04T05:32:12.167Z,11.18
2023-05-04T05:34:42.557Z,11.38
2023-05-04T05:37:11.943Z,11.34
2023-05-04T05:39:41.235Z,11.29
2023-05-04T05:42:13.201Z,11.20
2023-05-04T05:44:42.519Z,11.32
2023-05-04T05:47:11.921Z,11.25
2023-05-04T05:49:42.185Z,11.31
2023-05-04T05:52:13.130Z,11.30
2023-05-04T05:54:42.515Z,11.42
2023-05-04T05:57:14.664Z,11.25
2023-05-04T05:59:44.851Z,11.36
2023-05-04T06:02:15.025Z,11.45
2023-05-04T06:04:45.164Z,11.56
2023-05-04T06:07:14.700Z,11.53
2023-05-04T06:09:44.370Z,11.36
2023-05-04T06:12:17.273Z,11.51
2023-05-04T06:14:48.048Z,11.56
2023-05-04T06:17:17.513Z,11.51
2023-05-04T06:19:50.754Z,11.33
2023-05-04T06:22:20.607Z,11.42
2023-05-04T06:24:58.130Z,11.30
2023-05-04T06:27:33.462Z,11.29
2023-05-04T06:30:03.824Z,11.31
2023-05-04T06:32:33.509Z,11.35
2023-05-04T06:35:03.031Z,11.36
2023-05-04T06:37:32.474Z,11.42
2023-05-04T06:40:02.132Z,11.45
2023-05-04T06:42:35.341Z,11.57
2023-05-04T06:45:04.976Z,11.65
2023-05-04T06:47:34.313Z,11.65
2023-05-04T06:50:03.792Z,11.72
2023-05-04T06:52:33.313Z,11.76
2023-05-04T06:55:02.667Z,11.93
2023-05-04T06:57:34.990Z,11.82
2023-05-04T07:00:05.793Z,11.96
2023-05-04T07:02:35.938Z,11.98
2023-05-04T07:05:05.900Z,11.97
2023-05-04T07:07:35.327Z,12.15
2023-05-04T07:10:04.782Z,12.01
2023-05-04T07:12:36.886Z,12.14
2023-05-04T07:15:06.963Z,12.11
2023-05-04T07:17:36.813Z,12.26
2023-05-04T07:20:08.540Z,12.24
2023-05-04T07:22:38.188Z,12.26
2023-05-04T07:25:08.720Z,12.29
2023-05-04T07:27:43.899Z,12.35
2023-05-04T07:30:14.015Z,12.28
2023-05-04T07:32:43.947Z,12.29
2023-05-04T07:35:13.390Z,12.42
2023-05-04T07:37:42.923Z,12.54
2023-05-04T07:40:14.810Z,12.69
2023-05-04T07:42:46.811Z,12.73
2023-05-04T07:45:17.025Z,13.05
2023-05-04T07:47:46.467Z,13.07
2023-05-04T07:50:17.011Z,12.90
2023-05-04T07:52:47.876Z,12.99
2023-05-04T07:55:17.296Z,13.18
2023-05-04T07:57:49.201Z,13.24
2023-05-04T08:00:19.971Z,13.48
2023-05-04T08:02:49.770Z,13.58
2023-05-04T08:05:19.152Z,13.48
2023-05-04T08:07:49.512Z,13.60
2023-05-04T08:10:18.953Z,13.72
2023-05-04T08:12:51.054Z,13.45
2023-05-04T08:15:20.406Z,13.47
2023-05-04T08:17:49.720Z,13.89
2023-05-04T08:20:19.527Z,13.72
2023-05-04T08:22:50.024Z,13.78
2023-05-04T08:25:19.742Z,13.84
2023-05-04T08:27:51.944Z,13.98
2023-05-04T08:30:21.381Z,14.16
2023-05-04T08:32:53.175Z,13.98
2023-05-04T08:35:25.934Z,14.13
2023-05-04T08:37:55.297Z,14.20
2023-05-04T08:40:24.956Z,14.23
2023-05-04T08:42:56.940Z,14.43
2023-05-04T08:45:27.396Z,14.38
2023-05-04T08:47:56.968Z,14.71
2023-05-04T08:50:26.667Z,14.72
2023-05-04T08:52:56.107Z,14.67
2023-05-04T08:55:25.569Z,14.61
2023-05-04T08:57:58.171Z,14.74
2023-05-04T09:00:28.440Z,14.66
2023-05-04T09:02:59.856Z,14.72
2023-05-04T09:05:29.777Z,14.79
2023-05-04T09:07:59.621Z,14.70
2023-05-04T09:10:29.771Z,15.31
2023-05-04T09:13:01.849Z,15.01
2023-05-04T09:15:31.682Z,15.04
2023-05-04T09:18:03.010Z,14.98
2023-05-04T09:20:33.421Z,15.04
2023-05-04T09:23:07.081Z,15.14
2023-05-04T09:25:37.017Z,15.30
2023-05-04T09:28:08.964Z,15.18
2023-05-04T09:30:38.358Z,15.28
2023-05-04T09:33:07.772Z,15.36
2023-05-04T09:35:37.159Z,15.39
2023-05-04T09:38:07.499Z,15.50
2023-05-04T09:40:41.172Z,15.67
2023-05-04T09:43:13.988Z,15.47
2023-05-04T09:45:44.214Z,15.54
2023-05-04T09:48:21.090Z,15.54
2023-05-04T09:50:52.450Z,15.65
2023-05-04T09:53:24.938Z,15.64
2023-05-04T09:56:07.296Z,15.74
2023-05-04T09:58:40.452Z,15.97
2023-05-04T10:01:09.823Z,15.96
2023-05-04T10:03:39.335Z,15.88
2023-05-04T10:06:09.343Z,16.01
2023-05-04T10:08:40.292Z,16.23
2023-05-04T10:11:10.244Z,16.74
2023-05-04T10:13:42.924Z,16.35
2023-05-04T10:16:21.438Z,16.30
2023-05-04T10:19:10.818Z,16.34
2023-05-04T10:21:51.556Z,16.36
2023-05-04T10:24:42.343Z,16.12
2023-05-04T10:27:15.039Z,16.52
2023-05-04T10:29:51.965Z,17.12
2023-05-04T10:32:22.549Z,17.22
2023-05-04T10:34:52.337Z,16.82
2023-05-04T10:37:25.032Z,17.11
2023-05-04T10:39:56.226Z,16.87
2023-05-04T10:42:25.601Z,16.69
2023-05-04T10:44:58.583Z,16.75
2023-05-04T10:47:33.229Z,16.78
2023-05-04T10:50:07.226Z,16.68
2023-05-04T10:52:48.526Z,16.78
2023-05-04T10:55:20.078Z,17.14
2023-05-04T10:57:51.031Z,17.04
2023-05-04T11:00:23.892Z,17.01
2023-05-04T11:02:53.293Z,17.25
2023-05-04T11:05:22.663Z,17.68
2023-05-04T11:07:53.504Z,17.90
2023-05-04T11:10:24.938Z,17.64
2023-05-04T11:12:54.492Z,17.69
2023-05-04T11:15:26.764Z,17.28
2023-05-04T11:17:56.410Z,17.68
2023-05-04T11:20:27.061Z,17.28
2023-05-04T11:22:57.348Z,17.05
2023-05-04T11:25:30.361Z,17.47
2023-05-04T11:28:01.223Z,17.50
2023-05-04T11:30:37.928Z,17.57
2023-05-04T11:33:14.496Z,18.26
2023-05-04T11:35:45.441Z,17.69
2023-05-04T11:38:21.005Z,17.50
2023-05-04T11:40:51.575Z,17.63
2023-05-04T11:43:21.257Z,17.92
2023-05-04T11:45:56.005Z,17.50
2023-05-04T11:48:25.568Z,18.04
2023-05-04T11:50:55.297Z,17.50
2023-05-04T11:53:24.793Z,17.47
2023-05-04T11:55:57.057Z,17.62
2023-05-04T11:58:27.856Z,17.91
2023-05-04T12:01:04.125Z,17.67
2023-05-04T12:03:52.014Z,17.52
2023-05-04T12:06:33.075Z,17.57
2023-05-04T12:09:07.428Z,17.68
2023-05-04T12:11:38.540Z,17.90
2023-05-04T12:14:10.300Z,18.59
2023-05-04T12:16:43.333Z,18.59
2023-05-04T12:19:14.057Z,18.19
2023-05-04T12:21:52.510Z,18.55
2023-05-04T12:24:24.039Z,18.31
2023-05-04T12:26:53.597Z,18.37
2023-05-04T12:29:23.017Z,18.11
2023-05-04T12:31:54.983Z,18.14
2023-05-04T12:34:24.356Z,18.42
2023-05-04T12:36:53.999Z,18.19
2023-05-04T12:39:24.169Z,18.69
2023-05-04T12:41:53.654Z,18.11
2023-05-04T12:44:23.128Z,18.67
2023-05-04T12:46:55.074Z,18.53
2023-05-04T12:49:24.915Z,18.19
2023-05-04T12:51:54.591Z,18.59
2023-05-04T12:54:23.955Z,18.74
2023-05-04T12:56:53.541Z,18.41
2023-05-04T12:59:23.652Z,18.61
2023-05-04T13:01:55.568Z,18.63
2023-05-04T13:04:24.900Z,18.32
2023-05-04T13:06:54.513Z,18.14
2023-05-04T13:09:23.824Z,18.15
2023-05-04T13:11:54.117Z,18.35
2023-05-04T13:14:23.422Z,18.65
2023-05-04T13:16:55.392Z,18.25
2023-05-04T13:19:24.794Z,18.44
2023-05-04T13:21:54.111Z,18.47
2023-05-04T13:24:23.704Z,18.16
2023-05-04T13:26:53.033Z,18.41
2023-05-04T13:29:22.351Z,18.44
2023-05-04T13:31:51.743Z,18.62
2023-05-04T13:34:23.976Z,18.40
2023-05-04T13:36:53.422Z,18.21
2023-05-04T13:39:25.624Z,18.17
2023-05-04T13:41:55.073Z,18.49
2023-05-04T13:44:24.400Z,18.67
2023-05-04T13:46:53.764Z,18.24
2023-05-04T13:49:25.749Z,18.54
2023-05-04T13:51:55.058Z,18.79
2023-05-04T13:54:24.412Z,18.79
2023-05-04T13:56:54.528Z,18.36
2023-05-04T13:59:23.868Z,18.51
2023-05-04T14:01:53.378Z,18.42
2023-05-04T14:04:26.424Z,18.74
2023-05-04T14:06:57.732Z,18.89
2023-05-04T14:09:28.653Z,18.54
2023-05-04T14:11:58.840Z,18.49
2023-05-04T14:14:28.181Z,18.70
2023-05-04T14:16:57.613Z,18.50
2023-05-04T14:19:30.222Z,18.60
2023-05-04T14:21:59.542Z,18.58
2023-05-04T14:24:29.645Z,18.49
2023-05-04T14:26:59.185Z,18.53
2023-05-04T14:29:29.870Z,18.54
2023-05-04T14:32:00.304Z,18.47
2023-05-04T14:34:32.782Z,18.38
2023-05-04T14:37:02.132Z,18.52
2023-05-04T14:39:31.578Z,18.54
2023-05-04T14:42:01.055Z,18.57
2023-05-04T14:44:30.461Z,18.62
2023-05-04T14:46:59.772Z,18.70
2023-05-04T14:52:04.743Z,18.41
2023-05-04T14:54:34.041Z,18.40
2023-05-04T14:57:03.521Z,18.32
2023-05-04T14:59:32.832Z,18.38
2023-05-04T15:02:03.072Z,18.34
2023-05-04T15:04:35.291Z,18.42
2023-05-04T15:07:05.792Z,18.42
2023-05-04T15:09:35.730Z,18.42
2023-05-04T15:12:05.097Z,18.39
2023-05-04T15:14:34.429Z,18.47
2023-05-04T15:17:03.802Z,18.47
2023-05-04T15:19:35.814Z,18.63
2023-05-04T15:22:05.124Z,18.48
2023-05-04T15:24:34.626Z,18.53
2023-05-04T15:27:04.647Z,18.56
2023-05-04T15:29:34.381Z,18.64
2023-05-04T15:32:04.309Z,18.66
2023-05-04T15:34:36.267Z,18.62
2023-05-04T15:37:05.678Z,18.72
2023-05-04T15:39:35.091Z,18.71
2023-05-04T15:42:04.613Z,18.56
2023-05-04T15:44:34.009Z,18.66
2023-05-04T15:47:05.349Z,18.83
2023-05-04T15:49:37.731Z,18.68
2023-05-04T15:52:07.747Z,18.60
2023-05-04T15:54:37.038Z,18.59
2023-05-04T15:57:08.001Z,18.53
2023-05-04T15:59:37.322Z,18.50
2023-05-04T16:02:08.245Z,18.59
2023-05-04T16:04:40.143Z,18.53
2023-05-04T16:07:09.740Z,18.58
2023-05-04T16:09:39.083Z,18.56
2023-05-04T16:12:09.318Z,18.58
2023-05-04T16:14:38.820Z,18.55
2023-05-04T16:17:08.213Z,18.50
2023-05-04T16:19:40.244Z,18.51
2023-05-04T16:22:09.560Z,18.52
2023-05-04T16:24:38.977Z,18.50
2023-05-04T16:27:09.192Z,18.45
2023-05-04T16:29:38.570Z,18.47
2023-05-04T16:32:08.507Z,18.51
2023-05-04T16:34:40.396Z,18.62
2023-05-04T16:37:10.985Z,18.58
2023-05-04T16:39:40.785Z,18.54
2023-05-04T16:42:10.135Z,18.62
2023-05-04T16:44:39.439Z,18.55
2023-05-04T16:47:08.757Z,18.48
2023-05-04T16:49:41.182Z,18.42
2023-05-04T16:52:10.490Z,18.55
2023-05-04T16:54:39.844Z,18.46
2023-05-04T16:57:09.146Z,18.54
2023-05-04T16:59:38.573Z,18.52
2023-05-04T17:02:08.843Z,18.49
2023-05-04T17:04:40.820Z,18.47
2023-05-04T17:07:11.033Z,18.49
2023-05-04T17:09:41.277Z,18.56
2023-05-04T17:12:10.687Z,18.60
2023-05-04T17:14:40.073Z,18.57
2023-05-04T17:17:09.429Z,18.60
2023-05-04T17:19:41.926Z,18.59
2023-05-04T17:22:11.818Z,18.55
2023-05-04T17:24:43.505Z,18.61
2023-05-04T17:27:14.413Z,18.59
2023-05-04T17:29:44.203Z,18.60
2023-05-04T17:32:13.595Z,18.56
2023-05-04T17:34:45.560Z,18.54
2023-05-04T17:37:14.900Z,18.57
2023-05-04T17:39:44.633Z,18.57
2023-05-04T17:42:15.977Z,18.58
2023-05-04T17:44:45.332Z,18.58
2023-05-04T17:47:14.660Z,18.59
2023-05-04T17:49:47.553Z,18.53
2023-05-04T17:52:17.052Z,18.52
2023-05-04T17:54:46.427Z,18.56
2023-05-04T17:57:16.738Z,18.49
2023-05-04T17:59:47.310Z,18.29
2023-05-04T18:02:16.750Z,18.11
2023-05-04T18:04:49.162Z,17.92
2023-05-04T18:07:18.452Z,18.07
2023-05-04T18:09:47.741Z,18.19
2023-05-04T18:12:17.201Z,17.78
2023-05-04T18:14:46.508Z,17.73
2023-05-04T18:17:15.805Z,17.56
2023-05-04T18:19:45.181Z,17.66
2023-05-04T18:22:18.004Z,17.93
2023-05-04T18:24:49.754Z,17.74
2023-05-04T18:27:19.483Z,17.95
2023-05-04T18:29:48.824Z,17.84
2023-05-04T18:32:18.267Z,18.05
2023-05-04T18:34:51.688Z,17.54
2023-05-04T18:37:23.896Z,17.53
2023-05-04T18:39:53.266Z,17.70
2023-05-04T18:42:22.718Z,17.68
2023-05-04T18:44:53.535Z,17.61
2023-05-04T18:47:23.060Z,17.47
2023-05-04T18:49:53.239Z,17.56
2023-05-04T18:52:25.567Z,17.36
2023-05-04T18:54:54.856Z,17.36
2023-05-04T18:57:24.172Z,17.26
2023-05-04T18:59:53.561Z,17.36
2023-05-04T19:02:22.922Z,17.52
2023-05-04T19:04:52.307Z,17.33
2023-05-04T19:07:21.620Z,17.29
2023-05-04T19:09:53.527Z,17.07
2023-05-04T19:12:22.910Z,17.15
2023-05-04T19:14:52.981Z,17.22
2023-05-04T19:17:22.838Z,17.13
2023-05-04T19:19:52.168Z,17.14
2023-05-04T19:22:21.553Z,17.17
2023-05-04T19:24:55.573Z,16.90
2023-05-04T19:27:25.217Z,16.70
2023-05-04T19:29:56.281Z,16.93
2023-05-04T19:32:25.817Z,16.52
2023-05-04T19:34:55.346Z,17.08
2023-05-04T19:37:24.773Z,16.76
2023-05-04T19:39:57.931Z,16.73
2023-05-04T19:42:28.760Z,16.84
2023-05-04T19:44:58.084Z,16.82
2023-05-04T19:47:27.881Z,17.06
2023-05-04T19:49:57.595Z,16.81
2023-05-04T19:52:26.944Z,17.10
2023-05-04T19:54:58.883Z,16.78
2023-05-04T19:57:28.488Z,16.76
2023-05-04T19:59:58.525Z,16.84
2023-05-04T20:02:28.201Z,16.72
2023-05-04T20:04:57.624Z,16.65
2023-05-04T20:07:27.336Z,16.66
2023-05-04T20:09:59.364Z,16.84
2023-05-04T20:12:29.219Z,17.06
2023-05-04T20:14:58.779Z,16.91
2023-05-04T20:17:28.235Z,16.85
2023-05-04T20:19:57.594Z,16.88
2023-05-04T20:22:26.948Z,16.87
2023-05-04T20:24:58.878Z,17.01
2023-05-04T20:27:28.324Z,17.17
2023-05-04T20:29:57.696Z,16.94
2023-05-04T20:32:27.782Z,16.86
2023-05-04T20:34:57.136Z,16.97
2023-05-04T20:37:26.594Z,16.64
2023-05-04T20:39:56.727Z,16.96
2023-05-04T20:42:29.585Z,16.67
2023-05-04T20:44:59.079Z,16.90
2023-05-04T20:47:28.702Z,16.67
2023-05-04T20:49:58.052Z,16.49
2023-05-04T20:52:27.695Z,16.51
2023-05-04T20:54:57.428Z,16.52
2023-05-04T20:57:29.481Z,16.37
2023-05-04T20:59:59.115Z,16.54
2023-05-04T21:02:28.659Z,16.49
2023-05-04T21:04:58.053Z,16.31
2023-05-04T21:07:27.797Z,16.40
2023-05-04T21:09:59.278Z,16.38
2023-05-04T21:12:31.225Z,16.22
2023-05-04T21:15:00.647Z,16.17
2023-05-04T21:17:29.981Z,16.31
2023-05-04T21:19:59.311Z,16.33
2023-05-04T21:22:29.808Z,16.29
2023-05-04T21:24:59.115Z,16.24
2023-05-04T21:27:31.027Z,16.11
2023-05-04T21:30:00.779Z,16.48
2023-05-04T21:32:30.113Z,16.03
2023-05-04T21:34:59.460Z,16.03
2023-05-04T21:37:28.799Z,15.88
2023-05-04T21:39:58.487Z,15.89
2023-05-04T21:42:27.984Z,16.04
2023-05-04T21:45:00.292Z,16.20
2023-05-04T21:47:29.796Z,15.80
2023-05-04T21:49:59.172Z,15.97
2023-05-04T21:52:28.556Z,16.02
2023-05-04T21:54:57.894Z,16.06
2023-05-04T21:57:27.700Z,15.62
2023-05-04T21:59:57.049Z,16.02
2023-05-04T22:02:29.005Z,15.96
2023-05-04T22:04:58.520Z,15.79
2023-05-04T22:07:27.819Z,15.81
2023-05-04T22:09:57.165Z,15.83
2023-05-04T22:12:26.508Z,15.67
2023-05-04T22:14:55.862Z,15.79
2023-05-04T22:17:25.218Z,15.80
2023-05-04T22:19:57.145Z,16.03
2023-05-04T22:22:26.452Z,15.91
2023-05-04T22:24:56.031Z,16.19
2023-05-04T22:27:27.106Z,15.65
2023-05-04T22:29:56.436Z,15.80
2023-05-04T22:32:26.076Z,15.89
2023-05-04T22:34:58.025Z,15.84
2023-05-04T22:37:27.346Z,15.94
2023-05-04T22:39:56.812Z,16.08
2023-05-04T22:42:26.138Z,16.00
2023-05-04T22:44:55.615Z,15.78
2023-05-04T22:47:25.111Z,15.70
2023-05-04T22:49:59.643Z,15.86
2023-05-04T22:52:29.159Z,16.06
2023-05-04T22:54:58.562Z,15.95
2023-05-04T22:57:27.870Z,16.02
2023-05-04T22:59:57.221Z,15.96
2023-05-04T23:02:26.864Z,15.94
2023-05-04T23:04:59.761Z,15.95
2023-05-04T23:07:29.138Z,15.73
2023-05-04T23:09:58.501Z,15.76
2023-05-04T23:12:29.746Z,15.71
2023-05-04T23:14:59.230Z,15.58
2023-05-04T23:17:28.626Z,15.51
2023-05-04T23:20:00.618Z,15.65
2023-05-04T23:22:29.961Z,15.70
2023-05-04T23:24:59.293Z,15.47
2023-05-04T23:27:28.610Z,15.55
2023-05-04T23:29:57.957Z,15.68
2023-05-04T23:32:27.513Z,15.46
2023-05-04T23:34:56.990Z,15.59
2023-05-04T23:37:29.316Z,15.76
2023-05-04T23:39:58.726Z,15.56
2023-05-04T23:42:29.063Z,15.63
2023-05-04T23:44:58.722Z,15.82
2023-05-04T23:47:28.279Z,15.76
2023-05-04T23:49:57.820Z,15.81
2023-05-04T23:52:29.973Z,15.66
2023-05-04T23:54:59.393Z,15.66
2023-05-04T23:57:28.860Z,15.72
2023-05-04T23:59:58.285Z,15.74
